Time,TemperatureF,DewpointF,PressureIn,WindDirection,WindDirectionDegrees,WindSpeedMPH,WindSpeedGustMPH,Humidity,HourlyPrecipIn,Conditions,Clouds,dailyrainin,SoftwareType,DateUTC
2013-07-21 00:01:00,73.0,73.0,29.81,SW,235,2.5,2.5,100,0.00,,FEW280,0.00,VWS V14.01,2013-07-21 04:01:00,
2013-07-21 00:03:00,72.9,72.9,29.81,SW,235,2.5,2.5,100,0.00,,FEW280,0.00,VWS V14.01,2013-07-21 04:03:00,
2013-07-21 00:07:00,72.7,72.7,29.81,SW,235,2.5,2.5,100,0.00,,FEW280,0.00,VWS V14.01,2013-07-21 04:07:00,
2013-07-21 00:09:00,72.6,72.6,29.81,SW,235,2.5,2.5,100,0.00,,FEW280,0.00,VWS V14.01,2013-07-21 04:09:00,
2013-07-21 00:15:00,72.6,72.6,29.82,SW,235,2.5,2.5,100,0.00,,FEW280,0.00,VWS V14.01,2013-07-21 04:15:00,
2013-07-21 00:21:00,72.4,72.4,29.82,West,270,2.5,2.5,100,0.00,,FEW280,0.00,VWS V14.01,2013-07-21 04:21:00,
2013-07-21 00:27:00,72.2,72.2,29.82,West,270,2.5,2.5,100,0.00,,FEW280,0.00,VWS V14.01,2013-07-21 04:27:00,
2013-07-21 00:33:00,72.2,72.2,29.82,West,270,2.5,2.5,100,0.00,,FEW280,0.00,VWS V14.01,2013-07-21 04:33:00,
2013-07-21 00:39:00,72.2,72.2,29.82,West,270,2.5,2.5,100,0.00,,FEW280,0.00,VWS V14.01,2013-07-21 04:39:00,
2013-07-21 00:45:00,72.0,72.0,29.82,West,270,2.5,2.5,100,0.00,,FEW280,0.00,VWS V14.01,2013-07-21 04:45:00,
2013-07-21 00:51:00,71.8,71.8,29.82,West,270,2.5,2.5,100,0.00,,FEW280,0.00,VWS V14.01,2013-07-21 04:51:00,
2013-07-21 00:57:00,71.6,71.6,29.82,West,270,2.5,2.5,100,0.00,,FEW280,0.00,VWS V14.01,2013-07-21 04:57:00,
2013-07-21 01:03:00,71.5,71.5,29.82,West,270,2.5,2.5,100,0.00,,SCT280,0.00,VWS V14.01,2013-07-21 05:03:00,
2013-07-21 01:09:00,71.3,71.3,29.82,West,270,2.5,2.5,100,0.00,,SCT280,0.00,VWS V14.01,2013-07-21 05:09:00,
2013-07-21 01:15:00,71.3,71.3,29.82,West,270,2.5,2.5,100,0.00,,SCT280,0.00,VWS V14.01,2013-07-21 05:15:00,
2013-07-21 01:21:00,71.6,71.6,29.82,WSW,242,2.5,4.1,100,0.00,,SCT280,0.00,VWS V14.01,2013-07-21 05:21:00,
2013-07-21 01:27:00,71.4,71.4,29.82,SW,236,2.5,2.5,100,0.00,,SCT280,0.00,VWS V14.01,2013-07-21 05:27:00,
2013-07-21 01:33:00,71.0,71.0,29.83,SW,236,2.5,2.5,100,0.00,,SCT280,0.00,VWS V14.01,2013-07-21 05:33:00,
2013-07-21 01:39:00,70.8,70.8,29.83,SW,236,2.5,2.5,100,0.00,,SCT280,0.00,VWS V14.01,2013-07-21 05:39:00,
2013-07-21 01:45:00,70.7,70.7,29.83,SW,236,2.5,2.5,100,0.00,,SCT280,0.00,VWS V14.01,2013-07-21 05:45:00,
2013-07-21 01:51:00,70.6,70.6,29.83,SW,236,2.5,2.5,100,0.00,,SCT280,0.00,VWS V14.01,2013-07-21 05:51:00,
2013-07-21 01:57:00,70.8,70.8,29.83,SW,236,2.5,2.5,100,0.00,,SCT280,0.00,VWS V14.01,2013-07-21 05:57:00,
2013-07-21 02:03:00,70.5,70.5,29.83,SW,236,2.5,2.5,100,0.00,,BKN150,0.00,VWS V14.01,2013-07-21 06:03:00,
2013-07-21 02:09:00,70.5,70.5,29.83,SW,236,2.5,2.5,100,0.00,,BKN150,0.00,VWS V14.01,2013-07-21 06:09:00,
2013-07-21 02:15:00,70.1,70.1,29.84,SW,236,2.5,2.5,100,0.00,,BKN150,0.00,VWS V14.01,2013-07-21 06:15:00,
2013-07-21 02:21:00,70.0,70.0,29.84,SW,236,2.5,2.5,100,0.00,,BKN150,0.00,VWS V14.01,2013-07-21 06:21:00,
2013-07-21 02:27:00,70.1,70.1,29.84,SW,236,2.5,2.5,100,0.00,,BKN150,0.00,VWS V14.01,2013-07-21 06:27:00,
2013-07-21 02:33:00,69.9,69.9,29.84,SW,236,2.5,2.5,100,0.00,,BKN150,0.00,VWS V14.01,2013-07-21 06:33:00,
2013-07-21 02:39:00,69.9,69.9,29.84,SW,236,2.5,2.5,100,0.00,,BKN150,0.00,VWS V14.01,2013-07-21 06:39:00,
2013-07-21 02:45:00,69.8,69.8,29.84,SW,236,2.5,2.5,100,0.00,,BKN150,0.00,VWS V14.01,2013-07-21 06:45:00,
2013-07-21 02:51:00,70.1,70.1,29.85,SW,236,2.5,2.5,100,0.00,,BKN150,0.00,VWS V14.01,2013-07-21 06:51:00,
2013-07-21 02:57:00,69.9,69.9,29.85,SW,236,2.5,2.5,100,0.00,,BKN150,0.00,VWS V14.01,2013-07-21 06:57:00,
2013-07-21 03:03:00,69.4,69.4,29.85,SW,236,2.5,2.5,100,0.00,,BKN150,0.00,VWS V14.01,2013-07-21 07:03:00,
2013-07-21 03:09:00,69.4,69.4,29.85,SW,236,2.5,2.5,100,0.00,,BKN150,0.00,VWS V14.01,2013-07-21 07:09:00,
2013-07-21 03:15:00,69.5,69.5,29.85,SW,236,2.5,2.5,100,0.00,,BKN150,0.00,VWS V14.01,2013-07-21 07:15:00,
2013-07-21 03:21:00,69.5,69.5,29.85,SW,236,2.5,2.5,100,0.00,,BKN150,0.00,VWS V14.01,2013-07-21 07:21:00,
2013-07-21 03:27:00,69.5,69.5,29.84,SW,236,2.5,2.5,100,0.00,,BKN150,0.00,VWS V14.01,2013-07-21 07:27:00,
2013-07-21 03:33:00,69.4,69.4,29.84,SW,236,2.5,2.5,100,0.00,,BKN150,0.00,VWS V14.01,2013-07-21 07:33:00,
2013-07-21 03:39:00,69.3,69.3,29.84,SW,236,2.5,2.5,100,0.00,,BKN150,0.00,VWS V14.01,2013-07-21 07:39:00,
2013-07-21 03:45:00,69.2,69.2,29.84,SW,236,2.5,2.5,100,0.00,,BKN150,0.00,VWS V14.01,2013-07-21 07:45:00,
2013-07-21 03:51:00,69.2,69.2,29.84,SW,236,2.5,2.5,100,0.00,,BKN150,0.00,VWS V14.01,2013-07-21 07:51:00,
2013-07-21 03:57:00,68.9,68.9,29.85,SW,236,2.5,2.5,100,0.00,,BKN150,0.00,VWS V14.01,2013-07-21 07:57:00,
2013-07-21 04:03:00,68.8,68.8,29.85,SW,236,2.5,2.5,100,0.00,,BKN110,0.00,VWS V14.01,2013-07-21 08:03:00,
2013-07-21 04:09:00,68.9,68.9,29.85,SW,236,2.5,2.5,100,0.00,,BKN110,0.00,VWS V14.01,2013-07-21 08:09:00,
2013-07-21 04:15:00,69.0,69.0,29.85,SW,236,2.5,2.5,100,0.00,,BKN110,0.00,VWS V14.01,2013-07-21 08:15:00,
2013-07-21 04:21:00,68.8,68.8,29.85,SW,236,2.5,2.5,100,0.00,,BKN110,0.00,VWS V14.01,2013-07-21 08:21:00,
2013-07-21 04:27:00,68.5,68.5,29.85,SW,236,2.5,2.5,100,0.00,,BKN110,0.00,VWS V14.01,2013-07-21 08:27:00,
2013-07-21 04:33:00,68.6,68.6,29.86,SW,236,2.5,2.5,100,0.00,,BKN110,0.00,VWS V14.01,2013-07-21 08:33:00,
2013-07-21 04:39:00,68.6,68.6,29.86,SW,236,2.5,2.5,100,0.00,,BKN110,0.00,VWS V14.01,2013-07-21 08:39:00,
2013-07-21 04:45:00,68.6,68.6,29.86,SW,236,2.5,2.5,100,0.00,,BKN110,0.00,VWS V14.01,2013-07-21 08:45:00,
2013-07-21 04:51:00,68.5,68.5,29.86,SW,236,2.5,2.5,100,0.00,,BKN110,0.00,VWS V14.01,2013-07-21 08:51:00,
2013-07-21 04:57:00,68.6,68.6,29.86,SW,236,2.5,2.5,100,0.00,,BKN110,0.00,VWS V14.01,2013-07-21 08:57:00,
2013-07-21 05:03:00,68.7,68.7,29.86,SW,236,2.5,2.5,100,0.00,,BKN250,0.00,VWS V14.01,2013-07-21 09:03:00,
2013-07-21 05:09:00,68.5,68.5,29.86,SW,236,2.5,2.5,100,0.00,,BKN250,0.00,VWS V14.01,2013-07-21 09:09:00,
2013-07-21 05:15:00,68.6,68.6,29.87,SW,236,2.5,2.5,100,0.00,,BKN250,0.00,VWS V14.01,2013-07-21 09:15:00,
2013-07-21 05:21:00,68.5,68.5,29.87,SW,236,2.5,2.5,100,0.00,,BKN250,0.00,VWS V14.01,2013-07-21 09:21:00,
2013-07-21 05:27:00,68.8,68.8,29.88,SW,236,2.5,2.5,100,0.00,,BKN250,0.00,VWS V14.01,2013-07-21 09:27:00,
2013-07-21 05:33:00,69.0,69.0,29.89,SW,236,2.5,2.5,100,0.00,,BKN250,0.00,VWS V14.01,2013-07-21 09:33:00,
2013-07-21 05:39:00,69.0,69.0,29.89,SW,236,2.5,2.5,100,0.00,,BKN250,0.00,VWS V14.01,2013-07-21 09:39:00,
2013-07-21 05:45:00,69.0,69.0,29.89,SW,236,2.5,2.5,100,0.00,,BKN250,0.00,VWS V14.01,2013-07-21 09:45:00,
2013-07-21 05:51:00,69.1,69.1,29.89,SW,236,2.5,2.5,100,0.00,,BKN250,0.00,VWS V14.01,2013-07-21 09:51:00,
2013-07-21 05:57:00,69.0,69.0,29.89,SW,236,2.5,2.5,100,0.00,,BKN250,0.00,VWS V14.01,2013-07-21 09:57:00,
2013-07-21 06:03:00,68.9,68.9,29.89,SW,236,2.5,2.5,100,0.00,,BKN250,0.00,VWS V14.01,2013-07-21 10:03:00,
2013-07-21 06:09:00,68.9,68.9,29.90,SW,236,2.5,2.5,100,0.00,,BKN250,0.00,VWS V14.01,2013-07-21 10:09:00,
2013-07-21 06:15:00,68.7,68.7,29.89,SW,236,2.5,2.5,100,0.00,,BKN250,0.00,VWS V14.01,2013-07-21 10:15:00,
2013-07-21 06:21:00,68.6,68.6,29.90,SW,236,2.5,2.5,100,0.00,,BKN250,0.00,VWS V14.01,2013-07-21 10:21:00,
2013-07-21 06:27:00,69.0,69.0,29.90,SW,236,2.5,2.5,100,0.00,,BKN250,0.00,VWS V14.01,2013-07-21 10:27:00,
2013-07-21 06:33:00,69.2,69.2,29.90,SW,236,2.5,2.5,100,0.00,,BKN250,0.00,VWS V14.01,2013-07-21 10:33:00,
2013-07-21 06:39:00,69.3,69.3,29.89,SW,236,2.5,2.5,100,0.00,,BKN250,0.00,VWS V14.01,2013-07-21 10:39:00,
2013-07-21 06:45:00,69.3,69.3,29.89,SW,236,2.5,2.5,100,0.00,,BKN250,0.00,VWS V14.01,2013-07-21 10:45:00,
2013-07-21 06:51:00,69.6,69.6,29.90,SW,236,2.5,2.5,100,0.00,,BKN250,0.00,VWS V14.01,2013-07-21 10:51:00,
2013-07-21 06:57:00,70.0,70.0,29.90,SW,236,2.5,2.5,100,0.00,,BKN250,0.00,VWS V14.01,2013-07-21 10:57:00,
2013-07-21 07:03:00,70.0,70.0,29.90,SW,236,2.5,2.5,100,0.00,,BKN250,0.00,VWS V14.01,2013-07-21 11:03:00,
2013-07-21 07:09:00,70.1,70.1,29.90,SW,236,2.5,2.5,100,0.00,,BKN250,0.00,VWS V14.01,2013-07-21 11:09:00,
2013-07-21 07:15:00,70.6,70.6,29.91,SW,236,2.5,2.5,100,0.00,,BKN250,0.00,VWS V14.01,2013-07-21 11:15:00,
2013-07-21 07:21:00,71.5,71.5,29.91,SW,236,2.5,2.5,100,0.00,,BKN250,0.00,VWS V14.01,2013-07-21 11:21:00,
2013-07-21 07:27:00,71.5,71.0,29.91,SW,236,2.5,2.5,98,0.00,,BKN250,0.00,VWS V14.01,2013-07-21 11:27:00,
2013-07-21 07:33:00,71.5,71.5,29.92,SW,236,2.5,2.7,100,0.00,,BKN250,0.00,VWS V14.01,2013-07-21 11:33:00,
2013-07-21 07:39:00,71.4,71.4,29.92,SW,236,2.5,2.5,100,0.00,,BKN250,0.00,VWS V14.01,2013-07-21 11:39:00,
2013-07-21 07:45:00,71.7,71.5,29.92,SW,236,2.5,2.5,99,0.00,,BKN250,0.00,VWS V14.01,2013-07-21 11:45:00,
2013-07-21 07:51:00,72.2,72.1,29.93,East,89,2.5,5.9,100,0.00,,BKN250,0.00,VWS V14.01,2013-07-21 11:51:00,
2013-07-21 07:57:00,72.9,72.6,29.93,SSE,148,2.5,4.7,99,0.00,,BKN250,0.00,VWS V14.01,2013-07-21 11:57:00,
2013-07-21 08:03:00,73.1,72.5,29.93,SSE,148,2.5,2.5,98,0.00,,BKN250,0.00,VWS V14.01,2013-07-21 12:03:00,
2013-07-21 08:09:00,72.9,71.8,29.93,ESE,118,5.6,5.8,96,0.00,,BKN250,0.00,VWS V14.01,2013-07-21 12:09:00,
2013-07-21 08:15:00,72.9,72.2,29.94,SE,146,4.7,6.8,98,0.00,,BKN250,0.00,VWS V14.01,2013-07-21 12:15:00,
2013-07-21 08:21:00,72.8,72.1,29.94,SE,135,2.9,6.5,98,0.00,,BKN250,0.00,VWS V14.01,2013-07-21 12:21:00,
2013-07-21 08:27:00,73.6,72.9,29.93,East,86,2.5,2.5,98,0.00,,BKN250,0.00,VWS V14.01,2013-07-21 12:27:00,
2013-07-21 08:33:00,73.4,73.1,29.94,East,89,4.1,5.2,99,0.00,,BKN250,0.00,VWS V14.01,2013-07-21 12:33:00,
2013-07-21 08:39:00,73.7,73.2,29.94,ENE,76,2.5,4.7,98,0.00,,BKN250,0.00,VWS V14.01,2013-07-21 12:39:00,
2013-07-21 08:45:00,73.3,72.6,29.94,NNE,32,5.8,5.8,98,0.00,,BKN250,0.00,VWS V14.01,2013-07-21 12:45:00,
2013-07-21 08:51:00,73.3,72.8,29.95,ENE,63,3.7,6.2,98,0.00,,BKN250,0.00,VWS V14.01,2013-07-21 12:51:00,
2013-07-21 08:57:00,74.2,73.5,29.95,ESE,107,3.2,5.0,98,0.00,,BKN250,0.00,VWS V14.01,2013-07-21 12:57:00,
2013-07-21 09:03:00,73.5,72.7,29.95,NE,44,5.4,6.1,97,0.00,,BKN250,0.00,VWS V14.01,2013-07-21 13:03:00,
2013-07-21 09:09:00,74.0,73.2,29.95,SW,218,6.4,7.8,97,0.00,,BKN250,0.00,VWS V14.01,2013-07-21 13:09:00,
2013-07-21 09:15:00,76.0,74.3,29.95,ESE,112,3.2,6.8,95,0.00,,BKN250,0.00,VWS V14.01,2013-07-21 13:15:00,
2013-07-21 09:21:00,75.4,74.3,29.95,ESE,107,4.4,5.7,96,0.00,,BKN250,0.00,VWS V14.01,2013-07-21 13:21:00,
2013-07-21 09:27:00,76.8,74.8,29.95,South,188,4.1,5.7,94,0.00,,BKN250,0.00,VWS V14.01,2013-07-21 13:27:00,
2013-07-21 09:33:00,77.2,75.0,29.95,East,89,4.1,10.0,93,0.00,,BKN250,0.00,VWS V14.01,2013-07-21 13:33:00,
2013-07-21 09:39:00,74.9,74.1,29.95,SSE,155,6.7,9.1,97,0.00,,BKN250,0.00,VWS V14.01,2013-07-21 13:39:00,
2013-07-21 09:45:00,75.7,74.7,29.95,East,90,5.6,8.2,97,0.00,,BKN250,0.00,VWS V14.01,2013-07-21 13:45:00,
2013-07-21 09:51:00,77.7,76.3,29.95,SE,142,4.4,8.1,96,0.00,,BKN250,0.00,VWS V14.01,2013-07-21 13:51:00,
2013-07-21 09:57:00,76.2,73.1,29.95,South,186,10.1,14.7,90,0.00,,BKN250,0.00,VWS V14.01,2013-07-21 13:57:00,
2013-07-21 10:03:00,76.7,72.8,29.95,SSW,202,9.0,15.1,88,0.00,,BKN250,0.00,VWS V14.01,2013-07-21 14:03:00,
2013-07-21 10:09:00,77.1,71.7,29.95,South,180,8.8,14.6,83,0.00,,BKN250,0.00,VWS V14.01,2013-07-21 14:09:00,
2013-07-21 10:15:00,77.2,69.6,29.95,South,176,9.3,13.2,77,0.00,,BKN250,0.00,VWS V14.01,2013-07-21 14:15:00,
2013-07-21 10:21:00,78.2,68.9,29.95,South,188,3.6,12.2,73,0.00,,BKN250,0.00,VWS V14.01,2013-07-21 14:21:00,
2013-07-21 10:27:00,78.1,69.4,29.95,East,93,3.7,6.5,75,0.00,,BKN250,0.00,VWS V14.01,2013-07-21 14:27:00,
2013-07-21 10:33:00,77.9,67.0,29.95,South,180,10.8,10.8,69,0.00,,BKN250,0.00,VWS V14.01,2013-07-21 14:33:00,
2013-07-21 10:39:00,78.1,64.2,29.95,South,191,9.1,15.0,62,0.00,,BKN250,0.00,VWS V14.01,2013-07-21 14:39:00,
2013-07-21 10:45:00,78.3,63.5,29.96,SSE,148,5.4,11.5,60,0.00,,BKN250,0.00,VWS V14.01,2013-07-21 14:45:00,
2013-07-21 10:51:00,75.7,63.9,29.96,SSW,201,9.2,12.3,67,0.00,,BKN250,0.00,VWS V14.01,2013-07-21 14:51:00,
2013-07-21 10:57:00,76.8,63.8,29.96,SSW,195,4.4,13.4,64,0.00,,BKN250,0.00,VWS V14.01,2013-07-21 14:57:00,
2013-07-21 11:03:00,77.9,66.7,29.97,SSW,197,8.6,9.5,68,0.00,,BKN250,0.00,VWS V14.01,2013-07-21 15:03:00,
2013-07-21 11:09:00,79.7,66.5,29.97,SSW,194,7.5,10.3,64,0.00,,BKN250,0.00,VWS V14.01,2013-07-21 15:09:00,
2013-07-21 11:15:00,79.4,63.7,29.97,South,169,2.5,3.8,59,0.00,,BKN250,0.00,VWS V14.01,2013-07-21 15:15:00,
2013-07-21 11:21:00,76.8,62.9,29.97,SSW,194,7.0,12.6,62,0.00,,BKN250,0.00,VWS V14.01,2013-07-21 15:21:00,
2013-07-21 11:27:00,77.2,62.4,29.97,South,177,9.5,13.0,60,0.00,,BKN250,0.00,VWS V14.01,2013-07-21 15:27:00,
2013-07-21 11:33:00,76.8,64.5,29.97,SE,141,7.3,12.4,66,0.00,,BKN250,0.00,VWS V14.01,2013-07-21 15:33:00,
2013-07-21 11:39:00,76.4,64.1,29.97,SSE,166,7.1,11.4,66,0.00,,BKN250,0.00,VWS V14.01,2013-07-21 15:39:00,
2013-07-21 11:45:00,76.2,65.5,29.97,SSW,198,5.7,10.1,69,0.00,,BKN250,0.00,VWS V14.01,2013-07-21 15:45:00,
2013-07-21 11:51:00,76.1,65.8,29.97,SE,136,3.6,8.4,70,0.00,,BKN250,0.00,VWS V14.01,2013-07-21 15:51:00,
2013-07-21 11:57:00,77.0,65.8,29.97,South,186,7.5,8.3,68,0.00,,BKN250,0.00,VWS V14.01,2013-07-21 15:57:00,
2013-07-21 12:03:00,77.3,66.0,29.97,SSW,193,5.5,8.8,68,0.00,,OVC250,0.00,VWS V14.01,2013-07-21 16:03:00,
2013-07-21 12:09:00,76.7,67.1,29.97,SSW,201,3.7,3.7,72,0.00,,OVC250,0.00,VWS V14.01,2013-07-21 16:09:00,
2013-07-21 12:15:00,75.7,66.8,29.97,SSW,202,4.7,8.3,74,0.00,,OVC250,0.00,VWS V14.01,2013-07-21 16:15:00,
2013-07-21 12:21:00,77.9,65.9,29.97,South,181,6.6,8.5,67,0.00,,OVC250,0.00,VWS V14.01,2013-07-21 16:21:00,
2013-07-21 12:27:00,77.3,65.5,29.97,South,188,8.5,11.3,67,0.00,,OVC250,0.00,VWS V14.01,2013-07-21 16:27:00,
2013-07-21 12:33:00,76.3,64.8,29.97,South,169,4.2,7.7,68,0.00,,OVC250,0.00,VWS V14.01,2013-07-21 16:33:00,
2013-07-21 12:39:00,76.2,64.9,29.97,SSE,162,8.9,9.8,68,0.00,,OVC250,0.00,VWS V14.01,2013-07-21 16:39:00,
2013-07-21 12:45:00,77.8,63.8,29.97,SE,128,3.7,8.8,62,0.00,,OVC250,0.00,VWS V14.01,2013-07-21 16:45:00,
2013-07-21 12:51:00,78.4,63.6,29.97,South,190,7.0,11.0,60,0.00,,OVC250,0.00,VWS V14.01,2013-07-21 16:51:00,
2013-07-21 12:57:00,77.8,63.0,29.97,West,281,2.5,6.4,60,0.00,,OVC250,0.00,VWS V14.01,2013-07-21 16:57:00,
2013-07-21 13:03:00,79.3,64.7,29.97,South,180,4.8,6.4,61,0.00,,BKN250,0.00,VWS V14.01,2013-07-21 17:03:00,
2013-07-21 13:09:00,78.1,61.5,29.97,SSW,200,4.1,8.1,57,0.00,,BKN250,0.00,VWS V14.01,2013-07-21 17:09:00,
2013-07-21 13:15:00,78.4,63.8,29.97,South,176,9.1,9.5,61,0.00,,BKN250,0.00,VWS V14.01,2013-07-21 17:15:00,
2013-07-21 13:21:00,80.4,64.2,29.97,SSW,198,8.6,8.6,58,0.00,,BKN250,0.00,VWS V14.01,2013-07-21 17:21:00,
2013-07-21 13:27:00,79.2,64.8,29.97,South,186,7.4,7.4,61,0.00,,BKN250,0.00,VWS V14.01,2013-07-21 17:27:00,
2013-07-21 13:33:00,77.4,62.2,29.97,NE,45,5.7,6.9,59,0.00,,BKN250,0.00,VWS V14.01,2013-07-21 17:33:00,
2013-07-21 13:39:00,78.9,63.3,29.97,South,187,7.2,8.1,59,0.00,,BKN250,0.00,VWS V14.01,2013-07-21 17:39:00,
2013-07-21 13:45:00,79.3,66.2,29.97,East,79,2.5,3.7,64,0.00,,BKN250,0.00,VWS V14.01,2013-07-21 17:45:00,
2013-07-21 13:51:00,79.1,64.6,29.97,South,191,6.4,9.9,61,0.00,,BKN250,0.00,VWS V14.01,2013-07-21 17:51:00,
2013-07-21 13:57:00,79.2,64.5,29.98,SSW,195,6.5,6.7,61,0.00,,BKN250,0.00,VWS V14.01,2013-07-21 17:57:00,
2013-07-21 14:03:00,78.4,65.0,29.97,NE,46,2.8,5.5,63,0.00,,OVC250,0.00,VWS V14.01,2013-07-21 18:03:00,
2013-07-21 14:09:00,77.5,63.6,29.97,SE,125,3.6,9.2,62,0.00,,OVC250,0.00,VWS V14.01,2013-07-21 18:09:00,
2013-07-21 14:15:00,79.4,65.9,29.97,South,188,8.2,8.9,64,0.00,,OVC250,0.00,VWS V14.01,2013-07-21 18:15:00,
2013-07-21 14:21:00,78.1,65.1,29.97,SSE,167,5.2,7.7,64,0.00,,OVC250,0.00,VWS V14.01,2013-07-21 18:21:00,
2013-07-21 14:27:00,79.1,66.5,29.97,SE,127,4.3,7.8,65,0.00,,OVC250,0.00,VWS V14.01,2013-07-21 18:27:00,
2013-07-21 14:33:00,77.7,65.3,29.97,SSW,204,6.3,7.5,66,0.00,,OVC250,0.00,VWS V14.01,2013-07-21 18:33:00,
2013-07-21 14:39:00,77.4,64.8,29.97,SW,225,7.0,7.4,65,0.00,,OVC250,0.00,VWS V14.01,2013-07-21 18:39:00,
2013-07-21 14:45:00,77.3,66.9,29.97,SSW,195,6.8,7.6,70,0.00,,OVC250,0.00,VWS V14.01,2013-07-21 18:45:00,
2013-07-21 14:51:00,76.8,66.4,29.97,South,184,6.4,9.3,70,0.00,,OVC250,0.00,VWS V14.01,2013-07-21 18:51:00,
2013-07-21 14:57:00,76.3,67.0,29.97,SSW,198,8.3,10.6,73,0.00,,OVC250,0.00,VWS V14.01,2013-07-21 18:57:00,
2013-07-21 15:03:00,76.5,67.2,29.97,SSE,166,3.6,6.2,73,0.00,,OVC250,0.00,VWS V14.01,2013-07-21 19:03:00,
2013-07-21 15:09:00,76.4,66.8,29.97,SE,135,5.6,8.8,72,0.00,,OVC250,0.00,VWS V14.01,2013-07-21 19:09:00,
2013-07-21 15:15:00,76.4,67.6,29.96,ESE,103,3.5,5.6,74,0.00,,OVC250,0.00,VWS V14.01,2013-07-21 19:15:00,
2013-07-21 15:21:00,75.2,66.8,29.97,NNE,25,2.8,3.7,75,0.00,,OVC250,0.00,VWS V14.01,2013-07-21 19:21:00,
2013-07-21 15:27:00,76.4,67.4,29.97,South,188,6.2,6.2,74,0.00,,OVC250,0.00,VWS V14.01,2013-07-21 19:27:00,
2013-07-21 15:33:00,75.4,67.1,29.97,SSW,193,5.6,8.2,76,0.00,,OVC250,0.00,VWS V14.01,2013-07-21 19:33:00,
2013-07-21 15:39:00,76.8,67.5,29.97,South,187,6.0,8.6,73,0.00,,OVC250,0.00,VWS V14.01,2013-07-21 19:39:00,
2013-07-21 15:45:00,76.5,68.1,29.97,South,179,4.1,8.3,75,0.00,,OVC250,0.00,VWS V14.01,2013-07-21 19:45:00,
2013-07-21 15:51:00,76.3,69.2,29.97,South,190,6.1,8.4,79,0.00,,OVC250,0.00,VWS V14.01,2013-07-21 19:51:00,
2013-07-21 15:57:00,77.5,68.7,29.96,South,187,8.2,11.1,74,0.00,,OVC250,0.00,VWS V14.01,2013-07-21 19:57:00,
2013-07-21 16:03:00,76.9,69.6,29.96,SSW,195,5.4,6.4,78,0.00,,SCT220,0.00,VWS V14.01,2013-07-21 20:03:00,
2013-07-21 16:09:00,76.7,71.0,29.96,SE,142,4.3,8.7,83,0.00,,SCT220,0.00,VWS V14.01,2013-07-21 20:09:00,
2013-07-21 16:15:00,75.0,70.5,29.96,ENE,73,4.1,8.1,86,0.00,,SCT220,0.00,VWS V14.01,2013-07-21 20:15:00,
2013-07-21 16:21:00,75.4,69.8,29.96,South,176,9.2,11.0,83,0.00,,SCT220,0.00,VWS V14.01,2013-07-21 20:21:00,
2013-07-21 16:27:00,75.5,70.1,29.96,SSW,193,8.2,8.2,83,0.00,,SCT220,0.00,VWS V14.01,2013-07-21 20:27:00,
2013-07-21 16:33:00,75.6,69.8,29.96,SSE,156,7.0,9.5,82,0.00,,SCT220,0.00,VWS V14.01,2013-07-21 20:33:00,
2013-07-21 16:39:00,75.1,70.0,29.96,SSW,194,3.2,7.8,84,0.00,,SCT220,0.00,VWS V14.01,2013-07-21 20:39:00,
2013-07-21 16:45:00,74.4,69.3,29.96,SSE,150,4.2,9.6,84,0.00,,SCT220,0.00,VWS V14.01,2013-07-21 20:45:00,
2013-07-21 16:51:00,74.0,69.9,29.96,SSE,166,3.7,7.9,87,0.00,,SCT220,0.00,VWS V14.01,2013-07-21 20:51:00,
2013-07-21 16:57:00,73.9,70.2,29.96,SSE,166,2.5,4.7,88,0.00,,SCT220,0.00,VWS V14.01,2013-07-21 20:57:00,
2013-07-21 17:03:00,74.4,69.8,29.96,SSE,165,4.2,7.5,86,0.00,,BKN250,0.00,VWS V14.01,2013-07-21 21:03:00,
2013-07-21 17:09:00,74.7,70.7,29.96,South,191,6.2,6.2,87,0.00,,BKN250,0.00,VWS V14.01,2013-07-21 21:09:00,
2013-07-21 17:15:00,74.3,69.9,29.96,SSW,194,6.4,8.4,86,0.00,,BKN250,0.00,VWS V14.01,2013-07-21 21:15:00,
2013-07-21 17:21:00,75.9,70.7,29.96,South,186,5.0,9.9,84,0.00,,BKN250,0.00,VWS V14.01,2013-07-21 21:21:00,
2013-07-21 17:27:00,75.0,71.7,29.96,South,176,5.4,9.3,90,0.00,,BKN250,0.00,VWS V14.01,2013-07-21 21:27:00,
2013-07-21 17:33:00,75.2,71.7,29.96,SE,138,4.2,6.4,89,0.00,,BKN250,0.00,VWS V14.01,2013-07-21 21:33:00,
2013-07-21 17:39:00,74.7,71.4,29.96,South,173,5.8,8.7,89,0.00,,BKN250,0.00,VWS V14.01,2013-07-21 21:39:00,
2013-07-21 17:45:00,75.1,71.1,29.96,South,190,7.2,9.8,87,0.00,,BKN250,0.00,VWS V14.01,2013-07-21 21:45:00,
2013-07-21 17:51:00,74.8,71.4,29.96,ENE,58,2.7,8.6,89,0.00,,BKN250,0.00,VWS V14.01,2013-07-21 21:51:00,
2013-07-21 17:57:00,74.3,71.6,29.96,SSW,197,6.0,8.5,91,0.00,,BKN250,0.00,VWS V14.01,2013-07-21 21:57:00,
2013-07-21 18:03:00,73.7,71.8,29.95,SSE,166,6.8,10.6,94,0.00,,SHRA,0.00,VWS V14.01,2013-07-21 22:03:00,
2013-07-21 18:09:00,73.8,72.4,29.95,SSW,210,7.1,7.6,95,0.00,,SHRA,0.00,VWS V14.01,2013-07-21 22:09:00,
2013-07-21 18:15:00,73.4,72.2,29.95,South,190,4.0,5.9,96,0.00,,SHRA,0.00,VWS V14.01,2013-07-21 22:15:00,
2013-07-21 18:21:00,73.2,71.9,29.95,SW,219,5.2,12.3,96,0.00,,SHRA,0.00,VWS V14.01,2013-07-21 22:21:00,
2013-07-21 18:27:00,73.2,72.0,29.95,SE,129,4.7,6.2,96,0.00,,SHRA,0.00,VWS V14.01,2013-07-21 22:27:00,
2013-07-21 18:33:00,73.2,72.2,29.95,SE,125,3.0,7.4,97,0.00,,SHRA,0.00,VWS V14.01,2013-07-21 22:33:00,
2013-07-21 18:39:00,72.9,72.0,29.95,South,179,4.9,9.1,97,0.00,,SHRA,0.00,VWS V14.01,2013-07-21 22:39:00,
2013-07-21 18:45:00,72.8,72.0,29.96,SE,135,3.9,8.7,97,0.00,,SHRA,0.00,VWS V14.01,2013-07-21 22:45:00,
2013-07-21 18:51:00,72.6,72.0,29.96,South,174,6.0,7.3,98,0.00,,SHRA,0.00,VWS V14.01,2013-07-21 22:51:00,
2013-07-21 18:57:00,72.7,72.3,29.96,SE,134,3.8,9.3,98,0.00,,SHRA,0.00,VWS V14.01,2013-07-21 22:57:00,
2013-07-21 19:03:00,72.4,72.2,29.96,South,187,7.0,7.0,99,0.00,,OVC250,0.00,VWS V14.01,2013-07-21 23:03:00,
2013-07-21 19:09:00,72.3,72.3,29.96,South,187,6.9,7.0,100,0.00,,OVC250,0.00,VWS V14.01,2013-07-21 23:09:00,
2013-07-21 19:15:00,72.2,72.2,29.96,South,180,3.6,7.7,100,0.00,,OVC250,0.00,VWS V14.01,2013-07-21 23:15:00,
2013-07-21 19:21:00,71.8,71.8,29.96,SE,143,4.6,6.0,100,0.00,,OVC250,0.00,VWS V14.01,2013-07-21 23:21:00,
2013-07-21 19:27:00,71.6,71.6,29.96,South,188,5.0,7.8,100,0.00,,OVC250,0.00,VWS V14.01,2013-07-21 23:27:00,
2013-07-21 19:33:00,71.2,71.2,29.96,SE,139,2.5,5.2,100,0.00,,OVC250,0.00,VWS V14.01,2013-07-21 23:33:00,
2013-07-21 19:39:00,71.1,71.1,29.96,West,276,3.1,5.8,100,0.00,,OVC250,0.00,VWS V14.01,2013-07-21 23:39:00,
2013-07-21 19:45:00,70.9,70.9,29.96,SSE,167,3.9,5.7,100,0.00,,OVC250,0.00,VWS V14.01,2013-07-21 23:45:00,
2013-07-21 19:51:00,70.5,70.5,29.96,SSE,155,2.5,2.5,100,0.00,,OVC250,0.00,VWS V14.01,2013-07-21 23:51:00,
2013-07-21 19:57:00,70.4,70.4,29.96,SSW,198,2.5,5.0,100,0.00,,OVC250,0.00,VWS V14.01,2013-07-21 23:57:00,
2013-07-21 20:03:00,70.3,70.3,29.96,ESE,105,2.9,5.2,100,0.00,,OVC250,0.00,VWS V14.01,2013-07-22 00:03:00,
2013-07-21 20:09:00,70.2,70.2,29.96,SSW,208,4.9,6.5,100,0.00,,OVC250,0.00,VWS V14.01,2013-07-22 00:09:00,
2013-07-21 20:15:00,70.1,70.1,29.96,South,179,2.5,6.8,100,0.00,,OVC250,0.00,VWS V14.01,2013-07-22 00:15:00,
2013-07-21 20:21:00,69.9,69.9,29.96,South,180,3.7,3.9,100,0.00,,OVC250,0.00,VWS V14.01,2013-07-22 00:21:00,
2013-07-21 20:27:00,69.6,69.6,29.97,SSE,163,2.5,2.5,100,0.00,,OVC250,0.00,VWS V14.01,2013-07-22 00:27:00,
2013-07-21 20:33:00,69.6,69.6,29.97,SSE,160,2.5,5.8,100,0.00,,OVC250,0.00,VWS V14.01,2013-07-22 00:33:00,
2013-07-21 20:39:00,69.5,69.5,29.97,SSE,155,3.6,5.7,100,0.00,,OVC250,0.00,VWS V14.01,2013-07-22 00:39:00,
2013-07-21 20:45:00,69.5,69.5,29.97,SSW,193,5.8,7.8,100,0.00,,OVC250,0.00,VWS V14.01,2013-07-22 00:45:00,
2013-07-21 20:51:00,69.4,69.4,29.97,SW,215,6.7,8.7,100,0.00,,OVC250,0.00,VWS V14.01,2013-07-22 00:51:00,
2013-07-21 20:57:00,69.3,69.3,29.98,South,181,6.1,6.2,100,0.00,,OVC250,0.00,VWS V14.01,2013-07-22 00:57:00,
2013-07-21 21:03:00,69.2,69.2,29.98,South,176,4.6,7.9,100,0.00,,OVC250,0.00,VWS V14.01,2013-07-22 01:03:00,
2013-07-21 21:09:00,69.0,69.0,29.98,SSW,205,8.0,9.6,100,0.00,,OVC250,0.00,VWS V14.01,2013-07-22 01:09:00,
2013-07-21 21:15:00,68.9,68.9,29.99,South,188,5.4,7.6,100,0.00,,OVC250,0.00,VWS V14.01,2013-07-22 01:15:00,
2013-07-21 21:21:00,69.0,69.0,29.99,SSW,201,6.8,10.1,100,0.00,,OVC250,0.00,VWS V14.01,2013-07-22 01:21:00,
2013-07-21 21:27:00,68.9,68.9,29.99,South,184,4.4,9.9,100,0.00,,OVC250,0.00,VWS V14.01,2013-07-22 01:27:00,
2013-07-21 21:33:00,68.8,68.8,30.00,WNW,301,4.1,7.0,100,0.00,,OVC250,0.00,VWS V14.01,2013-07-22 01:33:00,
2013-07-21 21:39:00,68.8,68.8,30.00,South,184,3.7,9.3,100,0.00,,OVC250,0.00,VWS V14.01,2013-07-22 01:39:00,
2013-07-21 21:45:00,68.7,68.7,30.00,SSW,204,5.8,8.1,100,0.00,,OVC250,0.00,VWS V14.01,2013-07-22 01:45:00,
2013-07-21 21:51:00,68.8,68.8,30.00,SSW,211,7.3,8.5,100,0.00,,OVC250,0.00,VWS V14.01,2013-07-22 01:51:00,
2013-07-21 21:57:00,68.9,68.9,30.00,WSW,250,5.3,10.5,100,0.00,,OVC250,0.00,VWS V14.01,2013-07-22 01:57:00,
2013-07-21 22:03:00,68.9,68.9,30.00,SW,228,4.4,10.3,100,0.00,,OVC250,0.00,VWS V14.01,2013-07-22 02:03:00,
2013-07-21 22:09:00,68.9,68.9,30.00,SSW,197,7.6,9.6,100,0.00,,OVC250,0.00,VWS V14.01,2013-07-22 02:09:00,
2013-07-21 22:15:00,68.6,68.6,30.00,South,183,6.7,11.8,100,0.00,,OVC250,0.00,VWS V14.01,2013-07-22 02:15:00,
2013-07-21 22:21:00,68.4,68.4,30.00,SSE,149,6.8,10.6,100,0.00,,OVC250,0.00,VWS V14.01,2013-07-22 02:21:00,
2013-07-21 22:27:00,68.4,68.4,30.00,SW,222,5.0,10.6,100,0.00,,OVC250,0.00,VWS V14.01,2013-07-22 02:27:00,
2013-07-21 22:33:00,68.3,68.3,30.00,SSW,202,4.1,7.3,100,0.00,,OVC250,0.00,VWS V14.01,2013-07-22 02:33:00,
2013-07-21 22:39:00,68.2,68.2,30.00,SSW,198,4.8,6.8,100,0.00,,OVC250,0.00,VWS V14.01,2013-07-22 02:39:00,
2013-07-21 22:45:00,68.0,68.0,30.00,SSW,198,2.5,8.3,100,0.00,,OVC250,0.00,VWS V14.01,2013-07-22 02:45:00,
2013-07-21 22:51:00,67.9,67.9,30.00,SSE,163,4.4,7.2,100,0.00,,OVC250,0.00,VWS V14.01,2013-07-22 02:51:00,
2013-07-21 22:57:00,67.7,67.7,30.00,South,169,4.0,8.1,100,0.00,,OVC250,0.00,VWS V14.01,2013-07-22 02:57:00,
2013-07-21 23:03:00,67.6,67.6,30.00,South,191,6.6,9.1,100,0.00,,OVC250,0.00,VWS V14.01,2013-07-22 03:03:00,
2013-07-21 23:09:00,67.6,67.6,30.00,West,269,4.9,8.2,100,0.00,,OVC250,0.00,VWS V14.01,2013-07-22 03:09:00,
2013-07-21 23:15:00,67.4,67.4,30.00,SSE,167,4.6,9.9,100,0.00,,OVC250,0.00,VWS V14.01,2013-07-22 03:15:00,
2013-07-21 23:21:00,67.5,67.5,30.00,SSE,167,2.5,6.4,100,0.00,,OVC250,0.00,VWS V14.01,2013-07-22 03:21:00,
2013-07-21 23:27:00,67.5,67.5,30.00,South,172,2.5,4.3,100,0.00,,OVC250,0.00,VWS V14.01,2013-07-22 03:27:00,
2013-07-21 23:33:00,67.4,67.4,30.00,WSW,253,2.5,4.9,100,0.00,,OVC250,0.00,VWS V14.01,2013-07-22 03:33:00,
2013-07-21 23:39:00,67.3,67.3,30.00,SSW,197,2.5,2.5,100,0.00,,OVC250,0.00,VWS V14.01,2013-07-22 03:39:00,
2013-07-21 23:45:00,67.1,67.1,30.00,SW,222,2.5,2.5,100,0.00,,OVC250,0.00,VWS V14.01,2013-07-22 03:45:00,
2013-07-21 23:51:00,67.1,67.1,30.00,SW,222,2.5,2.5,100,0.00,,OVC250,0.00,VWS V14.01,2013-07-22 03:51:00,